Time;durP1;ratioP1;P1;durP2;ratioP2;P2;SDS_P1;SDS_P2;PMS_P1;PMS_P2;Temp;Humidity;BMP_temperature;BMP_pressure;BME280_temperature;BME280_humidity;BME280_pressure;Samples;Min_cycle;Max_cycle;Signal;HPM_P1;HPM_P2
2022/04/12 00:01:32;;;;;;;6.75;5.25;;;8.70;99.90;;;;;;4966624;28;20027;-78
2022/04/12 00:04:00;;;;;;;6.88;5.47;;;8.80;99.90;;;;;;4961589;28;20562;-75
2022/04/12 00:06:25;;;;;;;6.28;5.45;;;8.70;99.90;;;;;;4955187;29;20022;-76
2022/04/12 00:08:51;;;;;;;6.65;5.72;;;8.70;99.90;;;;;;4965851;28;20039;-77
2022/04/12 00:11:16;;;;;;;6.18;5.30;;;8.60;99.90;;;;;;4965262;28;20027;-75
2022/04/12 00:13:42;;;;;;;7.30;5.32;;;8.50;99.90;;;;;;4967034;28;20034;-77
2022/04/12 00:16:07;;;;;;;6.57;4.93;;;8.40;99.90;;;;;;4949762;28;20051;-74
2022/04/12 00:21:17;;;;;;;9.18;5.75;;;8.50;99.90;;;;;;4954343;28;20069;-75
2022/04/12 00:23:42;;;;;;;9.57;5.75;;;8.50;99.90;;;;;;4955818;28;20019;-77
2022/04/12 00:26:08;;;;;;;9.77;5.75;;;8.60;99.90;;;;;;4948076;28;20027;-76
2022/04/12 00:28:33;;;;;;;7.07;5.18;;;8.50;99.90;;;;;;4953520;28;20110;-76
2022/04/12 00:30:59;;;;;;;9.73;6.03;;;8.50;99.90;;;;;;4937005;29;20023;-75
2022/04/12 00:33:24;;;;;;;7.95;5.78;;;8.40;99.90;;;;;;4938236;29;20031;-77
2022/04/12 00:35:50;;;;;;;6.85;5.70;;;8.40;99.90;;;;;;4958207;28;20124;-76
2022/04/12 00:38:18;;;;;;;7.68;6.25;;;8.30;99.90;;;;;;4937018;29;20023;-75
2022/04/12 00:40:47;;;;;;;8.73;6.30;;;8.30;99.90;;;;;;4954005;28;20112;-76
2022/04/12 00:43:15;;;;;;;9.13;5.85;;;8.30;99.90;;;;;;4954563;29;20022;-77
2022/04/12 00:45:41;;;;;;;6.55;5.25;;;8.20;99.90;;;;;;4951630;28;20031;-75
2022/04/12 00:48:06;;;;;;;6.78;5.50;;;8.20;99.90;;;;;;4937377;28;20716;-76
2022/04/12 00:50:32;;;;;;;6.50;5.25;;;8.10;99.90;;;;;;4949715;29;20023;-77
2022/04/12 00:52:58;;;;;;;7.90;5.43;;;8.20;99.90;;;;;;4930517;29;20493;-75
2022/04/12 00:55:24;;;;;;;6.00;5.40;;;8.10;99.90;;;;;;4947301;29;20046;-76
2022/04/12 00:57:51;;;;;;;7.97;5.57;;;8.10;99.90;;;;;;4941238;29;20055;-76
2022/04/12 01:00:17;;;;;;;6.80;5.22;;;8.10;99.90;;;;;;4952862;28;20495;-76
2022/04/12 01:02:43;;;;;;;10.20;6.35;;;8.00;99.90;;;;;;4956827;28;20635;-76
2022/04/12 01:05:09;;;;;;;8.38;6.85;;;8.00;99.90;;;;;;4938292;29;20077;-75
2022/04/12 01:07:36;;;;;;;10.85;6.75;;;8.00;99.90;;;;;;4936159;29;20035;-76
2022/04/12 01:10:03;;;;;;;6.38;5.03;;;8.00;99.90;;;;;;4948843;28;20494;-75
2022/04/12 01:12:30;;;;;;;7.65;6.13;;;7.90;99.90;;;;;;4934347;29;20039;-76
2022/04/12 01:15:13;;;;;;;11.15;5.65;;;7.90;99.90;;;;;;4953582;28;20398;-75
2022/04/12 01:17:39;;;;;;;7.60;5.35;;;8.00;99.90;;;;;;4950679;28;20016;-76
2022/04/12 01:20:06;;;;;;;8.45;5.80;;;7.90;99.90;;;;;;4947548;28;20027;-77
2022/04/12 01:22:34;;;;;;;6.38;5.70;;;7.90;99.90;;;;;;4954165;28;20105;-77
2022/04/12 01:25:00;;;;;;;8.10;5.63;;;7.80;99.90;;;;;;4963973;28;20031;-76
2022/04/12 01:27:27;;;;;;;10.25;7.35;;;7.80;99.90;;;;;;4940740;29;20027;-75
2022/04/12 01:29:53;;;;;;;6.68;5.70;;;7.80;99.90;;;;;;4950970;28;20028;-76
2022/04/12 01:32:18;;;;;;;8.50;5.63;;;7.80;99.90;;;;;;4957658;28;20477;-76
2022/04/12 01:34:44;;;;;;;7.32;6.07;;;7.70;99.90;;;;;;4950218;28;20028;-76
2022/04/12 01:37:09;;;;;;;6.70;5.60;;;7.70;99.90;;;;;;4957775;28;20027;-75
2022/04/12 01:39:36;;;;;;;7.10;5.95;;;7.60;99.90;;;;;;4938542;28;20090;-75
2022/04/12 01:42:01;;;;;;;10.02;5.47;;;7.60;99.90;;;;;;4947827;29;20028;-74
2022/04/12 01:44:27;;;;;;;11.00;6.30;;;7.60;99.90;;;;;;4959810;28;20023;-77
2022/04/12 01:46:52;;;;;;;7.55;6.50;;;7.60;99.90;;;;;;4958126;28;20065;-76
2022/04/12 01:49:18;;;;;;;12.55;6.20;;;7.60;99.90;;;;;;4959691;28;20038;-75
2022/04/12 01:51:44;;;;;;;7.57;6.10;;;7.50;99.90;;;;;;4954052;28;20103;-76
2022/04/12 01:54:10;;;;;;;6.13;5.43;;;7.60;99.90;;;;;;4953340;29;20043;-74
2022/04/12 01:56:35;;;;;;;8.93;5.57;;;7.50;99.90;;;;;;4954095;28;20028;-76
2022/04/12 01:59:02;;;;;;;8.18;6.00;;;7.50;99.90;;;;;;4938595;29;20043;-76
2022/04/12 02:01:29;;;;;;;6.20;5.60;;;7.40;99.90;;;;;;4926429;29;20026;-75
2022/04/12 02:03:55;;;;;;;9.77;6.10;;;7.40;99.90;;;;;;4955238;28;20430;-77
2022/04/12 02:06:21;;;;;;;6.82;5.65;;;7.40;99.90;;;;;;4939876;29;20019;-76
2022/04/12 02:08:46;;;;;;;6.22;5.53;;;7.30;99.90;;;;;;4960549;28;20034;-76
2022/04/12 02:11:12;;;;;;;7.95;5.88;;;7.30;99.90;;;;;;4961481;28;20094;-76
2022/04/12 02:13:37;;;;;;;8.23;6.18;;;7.30;99.90;;;;;;4957430;28;20031;-77
2022/04/12 02:16:03;;;;;;;8.35;5.32;;;7.30;99.90;;;;;;4966157;28;20035;-77
2022/04/12 02:18:28;;;;;;;8.38;5.45;;;7.20;99.90;;;;;;4948696;28;20015;-76
2022/04/12 02:20:54;;;;;;;6.82;6.13;;;7.20;99.90;;;;;;4962044;28;20027;-76
2022/04/12 02:23:19;;;;;;;10.57;5.85;;;7.20;99.90;;;;;;4960053;28;20019;-76
2022/04/12 02:25:45;;;;;;;8.00;6.72;;;7.20;99.90;;;;;;4953217;28;20027;-75
2022/04/12 02:28:10;;;;;;;7.07;6.10;;;7.10;99.90;;;;;;4961309;28;20158;-76
2022/04/12 02:30:36;;;;;;;9.05;5.80;;;7.10;99.90;;;;;;4956892;28;20396;-78
2022/04/12 02:33:02;;;;;;;8.73;6.57;;;7.00;99.90;;;;;;4954174;28;20453;-76
2022/04/12 02:35:27;;;;;;;9.77;6.65;;;7.00;99.90;;;;;;4956249;29;20034;-76
2022/04/12 02:37:53;;;;;;;7.53;5.95;;;7.00;99.90;;;;;;4948355;28;20019;-76
2022/04/12 02:40:19;;;;;;;6.43;5.82;;;6.90;99.90;;;;;;4954071;28;20019;-75
2022/04/12 02:42:44;;;;;;;6.43;5.57;;;6.90;99.90;;;;;;4961569;28;20023;-77
2022/04/12 02:45:10;;;;;;;7.50;5.90;;;7.00;99.90;;;;;;4955411;28;20023;-75
2022/04/12 02:47:36;;;;;;;11.07;6.20;;;6.90;99.90;;;;;;4960574;28;20034;-75
2022/04/12 02:50:01;;;;;;;6.85;6.10;;;6.90;99.90;;;;;;4958542;28;20105;-76
2022/04/12 02:52:27;;;;;;;9.27;6.20;;;6.80;99.90;;;;;;4951841;28;20038;-75
2022/04/12 02:54:52;;;;;;;9.85;6.03;;;6.80;99.90;;;;;;4955314;29;20042;-77
2022/04/12 02:57:18;;;;;;;6.35;5.40;;;6.80;99.90;;;;;;4956082;29;20027;-76
2022/04/12 02:59:44;;;;;;;9.13;5.97;;;6.70;99.90;;;;;;4956182;28;20106;-75
2022/04/12 03:02:09;;;;;;;8.07;6.15;;;6.70;99.90;;;;;;4951096;28;20045;-75
2022/04/12 03:04:35;;;;;;;8.38;5.78;;;6.60;99.90;;;;;;4940769;29;20027;-77
2022/04/12 03:07:00;;;;;;;6.55;5.88;;;6.60;99.90;;;;;;4960800;28;20397;-73
2022/04/12 03:09:26;;;;;;;7.40;5.90;;;6.60;99.90;;;;;;4961746;28;20031;-76
2022/04/12 03:11:51;;;;;;;7.68;5.82;;;6.70;99.90;;;;;;4940596;29;20024;-75
2022/04/12 03:14:17;;;;;;;8.10;5.57;;;6.60;99.90;;;;;;4939762;28;20528;-76
2022/04/12 03:16:42;;;;;;;6.15;5.55;;;6.70;99.90;;;;;;4954093;28;20047;-75
2022/04/12 03:19:08;;;;;;;9.00;6.38;;;6.60;99.90;;;;;;4955301;28;20085;-75
2022/04/12 03:21:34;;;;;;;9.15;6.35;;;6.60;99.90;;;;;;4954328;28;20418;-75
2022/04/12 03:24:00;;;;;;;7.68;6.18;;;6.60;99.90;;;;;;4964591;28;20417;-74
2022/04/12 03:26:25;;;;;;;6.13;5.50;;;6.60;99.90;;;;;;4959319;28;20047;-76
2022/04/12 03:28:51;;;;;;;9.93;5.55;;;6.50;99.90;;;;;;4960708;28;20054;-78
2022/04/12 03:31:17;;;;;;;9.68;5.97;;;6.50;99.90;;;;;;4956798;28;20030;-76
2022/04/12 03:33:42;;;;;;;9.55;6.20;;;6.60;99.90;;;;;;4956027;28;20039;-76
2022/04/12 03:36:08;;;;;;;8.52;5.75;;;6.50;99.90;;;;;;4939411;29;20027;-75
2022/04/12 03:38:35;;;;;;;7.15;6.40;;;6.60;99.90;;;;;;4953486;28;20489;-75
2022/04/12 03:41:03;;;;;;;6.65;5.88;;;6.60;99.90;;;;;;4951693;28;20053;-76
2022/04/12 03:43:28;;;;;;;8.93;6.55;;;6.60;99.90;;;;;;4960964;28;20023;-76
2022/04/12 03:45:54;;;;;;;7.22;5.40;;;6.60;99.90;;;;;;4947176;28;20031;-76
2022/04/12 03:48:19;;;;;;;8.13;5.75;;;6.60;99.90;;;;;;4955529;28;20023;-76
2022/04/12 03:50:45;;;;;;;6.95;5.72;;;6.60;99.90;;;;;;4944978;29;20035;-77
2022/04/12 03:53:10;;;;;;;7.28;5.72;;;6.60;99.90;;;;;;4956684;28;20027;-77
2022/04/12 03:55:39;;;;;;;9.50;6.38;;;6.50;99.90;;;;;;4953195;28;20055;-77
2022/04/12 03:58:07;;;;;;;11.95;5.93;;;6.50;99.90;;;;;;4952597;28;20026;-76
2022/04/12 04:00:34;;;;;;;11.25;6.53;;;6.50;99.90;;;;;;4937700;29;20024;-76
2022/04/12 04:02:59;;;;;;;8.63;6.45;;;6.40;99.90;;;;;;4956674;28;20477;-75
2022/04/12 04:05:26;;;;;;;8.32;7.45;;;6.50;99.90;;;;;;4951595;28;20034;-76
2022/04/12 04:07:51;;;;;;;7.45;6.25;;;6.50;99.90;;;;;;4955853;28;20033;-75
2022/04/12 04:10:17;;;;;;;9.68;6.65;;;6.50;99.90;;;;;;4937436;29;20035;-75
2022/04/12 04:12:43;;;;;;;8.88;6.65;;;6.50;99.90;;;;;;4938943;29;20027;-76
2022/04/12 04:15:14;;;;;;;8.55;6.55;;;6.40;99.90;;;;;;4954013;28;20102;-77
2022/04/12 04:17:44;;;;;;;10.32;6.45;;;6.40;99.90;;;;;;4958353;28;20019;-75
2022/04/12 04:20:13;;;;;;;10.88;7.50;;;6.40;99.90;;;;;;4949852;28;20028;-76
2022/04/12 04:22:40;;;;;;;9.38;6.47;;;6.30;99.90;;;;;;4959980;28;20094;-76
2022/04/12 04:25:12;;;;;;;11.50;7.25;;;6.30;99.90;;;;;;4937341;29;20054;-76
2022/04/12 04:27:41;;;;;;;9.70;6.40;;;6.30;99.90;;;;;;4951769;28;20023;-77
2022/04/12 04:30:10;;;;;;;9.45;6.93;;;6.50;99.90;;;;;;4941045;29;20027;-75
2022/04/12 04:32:36;;;;;;;13.95;7.25;;;6.50;99.90;;;;;;4958249;28;20126;-76
2022/04/12 04:35:03;;;;;;;10.90;6.72;;;6.40;99.90;;;;;;4950587;28;20027;-75
2022/04/12 04:37:29;;;;;;;13.88;6.97;;;6.40;99.90;;;;;;4950722;28;20041;-77
2022/04/12 04:39:54;;;;;;;11.43;8.52;;;6.30;99.90;;;;;;4955382;28;20122;-76
2022/04/12 04:42:20;;;;;;;11.43;6.53;;;6.30;99.90;;;;;;4953969;28;20016;-76
2022/04/12 04:44:47;;;;;;;9.98;6.30;;;6.30;99.90;;;;;;4959938;28;20020;-76
2022/04/12 04:47:13;;;;;;;10.88;6.22;;;6.30;99.90;;;;;;4962893;28;20119;-75
2022/04/12 04:49:38;;;;;;;13.48;7.13;;;6.40;99.90;;;;;;4975064;28;20026;-74
2022/04/12 04:52:04;;;;;;;8.40;7.25;;;6.40;99.90;;;;;;4973917;28;20031;-74
2022/04/12 04:54:30;;;;;;;9.38;7.82;;;6.40;99.90;;;;;;4958639;29;20035;-75
2022/04/12 04:56:56;;;;;;;11.05;7.32;;;6.40;99.90;;;;;;4981396;28;20033;-76
2022/04/12 04:59:21;;;;;;;11.05;8.02;;;6.40;99.90;;;;;;4973368;28;20086;-75
2022/04/12 05:01:47;;;;;;;10.73;8.68;;;6.40;99.90;;;;;;4972945;28;20038;-75
2022/04/12 05:04:12;;;;;;;8.75;7.03;;;6.50;99.90;;;;;;4979927;28;20024;-75
2022/04/12 05:06:38;;;;;;;12.65;8.40;;;6.50;99.90;;;;;;4971460;28;20021;-75
2022/04/12 05:09:03;;;;;;;13.55;9.48;;;6.60;99.90;;;;;;4971026;28;20114;-75
2022/04/12 05:11:31;;;;;;;13.18;10.30;;;6.60;99.90;;;;;;4936537;28;20023;-76
2022/04/12 05:13:57;;;;;;;13.27;9.43;;;6.60;99.90;;;;;;4950173;28;20019;-75
2022/04/12 05:16:22;;;;;;;11.80;7.10;;;6.70;99.90;;;;;;4962294;28;20033;-77
2022/04/12 05:18:48;;;;;;;10.57;8.43;;;6.80;99.90;;;;;;4970409;28;20070;-76
2022/04/12 05:21:14;;;;;;;14.60;7.97;;;6.90;99.90;;;;;;4967241;28;20106;-76
2022/04/12 05:23:39;;;;;;;12.85;8.18;;;7.10;99.90;;;;;;4953736;29;20030;-76
2022/04/12 05:26:05;;;;;;;8.88;7.22;;;7.30;99.90;;;;;;4983373;28;20088;-74
2022/04/12 05:28:31;;;;;;;14.00;7.80;;;7.40;99.90;;;;;;4979941;28;20027;-74
2022/04/12 05:30:56;;;;;;;9.75;6.93;;;7.60;99.90;;;;;;4965710;28;20026;-72
2022/04/12 05:33:22;;;;;;;11.18;6.30;;;7.80;99.90;;;;;;4977590;28;20018;-74
2022/04/12 05:35:47;;;;;;;18.67;8.80;;;8.00;99.90;;;;;;4975922;28;20019;-75
2022/04/12 05:38:13;;;;;;;8.80;7.47;;;8.30;99.90;;;;;;4978326;28;20027;-75
2022/04/12 05:40:39;;;;;;;12.35;7.82;;;8.70;99.90;;;;;;4960620;29;20110;-75
2022/04/12 05:43:04;;;;;;;10.00;7.65;;;9.00;99.90;;;;;;4963205;28;20035;-75
2022/04/12 05:45:30;;;;;;;9.35;6.32;;;9.40;99.90;;;;;;4962108;28;20019;-75
2022/04/12 05:47:56;;;;;;;9.32;7.35;;;9.70;99.90;;;;;;4961158;28;20027;-75
2022/04/12 05:50:23;;;;;;;13.15;6.32;;;9.80;99.90;;;;;;4948801;29;20026;-75
2022/04/12 05:52:50;;;;;;;12.93;6.88;;;9.90;99.90;;;;;;4962922;28;20023;-75
2022/04/12 05:55:17;;;;;;;10.70;6.10;;;9.90;99.90;;;;;;4942139;29;20027;-76
2022/04/12 05:57:50;;;;;;;10.98;6.47;;;10.00;99.90;;;;;;4947390;29;20048;-75
2022/04/12 06:00:18;;;;;;;7.80;5.80;;;9.90;99.90;;;;;;4942812;29;20370;-75
2022/04/12 06:02:44;;;;;;;11.80;6.68;;;9.70;99.90;;;;;;4950979;28;20593;-76
2022/04/12 06:05:13;;;;;;;13.15;7.47;;;9.50;99.90;;;;;;4961631;28;20469;-76
2022/04/12 06:07:39;;;;;;;10.73;6.90;;;9.60;99.90;;;;;;4963148;28;20031;-76
2022/04/12 06:10:05;;;;;;;19.42;6.40;;;9.60;99.90;;;;;;4940169;29;20489;-74
2022/04/12 06:12:31;;;;;;;16.17;6.80;;;9.80;99.90;;;;;;4952907;28;20130;-74
2022/04/12 06:14:56;;;;;;;11.15;6.78;;;9.70;99.90;;;;;;4956742;28;20533;-75
2022/04/12 06:17:28;;;;;;;17.25;7.20;;;9.60;99.90;;;;;;4964389;28;20090;-76
2022/04/12 06:19:59;;;;;;;18.42;7.22;;;10.20;99.90;;;;;;4954150;28;20046;-76
2022/04/12 06:22:24;;;;;;;15.70;7.53;;;10.50;99.90;;;;;;4969257;28;20022;-76
2022/04/12 06:24:50;;;;;;;17.05;8.15;;;10.60;99.90;;;;;;4959488;29;20043;-76
2022/04/12 06:27:15;;;;;;;17.40;7.68;;;10.60;99.90;;;;;;4957459;28;20525;-76
2022/04/12 06:29:41;;;;;;;9.45;7.22;;;10.70;99.90;;;;;;4963036;28;20019;-75
2022/04/12 06:32:07;;;;;;;8.65;6.55;;;10.80;99.90;;;;;;4966737;28;20034;-77
2022/04/12 06:34:32;;;;;;;13.65;7.10;;;10.60;99.90;;;;;;4962332;28;20032;-76
2022/04/12 06:36:58;;;;;;;10.20;6.90;;;10.50;99.90;;;;;;4965127;28;20016;-78
2022/04/12 06:39:24;;;;;;;9.52;6.32;;;10.50;99.90;;;;;;4965508;28;20022;-77
2022/04/12 06:41:51;;;;;;;7.45;6.72;;;10.80;99.90;;;;;;4951535;29;20023;-77
2022/04/12 06:44:20;;;;;;;10.43;6.70;;;11.00;99.90;;;;;;4971422;28;20047;-79
2022/04/12 06:46:46;;;;;;;15.68;7.47;;;11.10;99.90;;;;;;4967020;28;20035;-77
2022/04/12 06:49:19;;;;;;;9.68;6.78;;;11.20;99.90;;;;;;4958898;28;20023;-80
2022/04/12 06:51:44;;;;;;;8.55;6.20;;;11.30;99.90;;;;;;4966523;28;20394;-79
2022/04/12 06:54:10;;;;;;;11.25;7.97;;;11.40;99.90;;;;;;4956133;28;20027;-79
2022/04/12 06:56:35;;;;;;;11.70;6.82;;;11.10;99.90;;;;;;4959846;29;20074;-78
2022/04/12 06:59:01;;;;;;;10.57;7.30;;;11.30;99.90;;;;;;4963520;28;20105;-79
2022/04/12 07:01:26;;;;;;;15.02;7.47;;;11.60;99.90;;;;;;4959128;28;20433;-77
2022/04/12 07:03:52;;;;;;;9.18;6.78;;;11.70;99.90;;;;;;4970043;28;20440;-78
2022/04/12 07:06:17;;;;;;;10.23;7.93;;;11.70;99.90;;;;;;4951988;28;20046;-78
2022/04/12 07:08:43;;;;;;;13.80;7.75;;;11.50;99.90;;;;;;4959304;28;20057;-78
2022/04/12 07:11:08;;;;;;;11.48;7.30;;;11.60;99.90;;;;;;4955340;28;20122;-78
2022/04/12 07:13:34;;;;;;;10.70;7.22;;;11.80;99.90;;;;;;4951741;28;20027;-78
2022/04/12 07:15:59;;;;;;;10.40;6.68;;;12.00;99.90;;;;;;4945845;28;20034;-78
2022/04/12 07:18:25;;;;;;;13.32;7.38;;;12.30;99.90;;;;;;4968704;28;20031;-77
2022/04/12 07:20:50;;;;;;;12.73;7.38;;;12.50;99.90;;;;;;4970407;28;20042;-79
2022/04/12 07:23:16;;;;;;;11.57;6.63;;;12.60;99.90;;;;;;4961125;28;20023;-77
2022/04/12 07:25:41;;;;;;;9.35;6.35;;;12.60;99.90;;;;;;4955106;28;20050;-78
2022/04/12 07:28:07;;;;;;;9.88;7.00;;;12.40;99.90;;;;;;4959880;28;20254;-78
2022/04/12 07:30:32;;;;;;;12.38;6.43;;;12.50;99.90;;;;;;4957695;28;20028;-77
2022/04/12 07:32:58;;;;;;;7.53;5.93;;;12.70;99.90;;;;;;4957461;28;20031;-78
2022/04/12 07:35:27;;;;;;;6.57;5.82;;;12.60;99.90;;;;;;4956430;29;20023;-77
2022/04/12 07:37:53;;;;;;;9.18;6.30;;;12.60;99.90;;;;;;4958575;28;20043;-78
2022/04/12 07:40:18;;;;;;;7.05;5.97;;;12.70;99.90;;;;;;4971015;28;20035;-77
2022/04/12 07:42:44;;;;;;;7.60;5.10;;;12.70;99.90;;;;;;4965791;28;20643;-77
2022/04/12 07:45:09;;;;;;;12.60;5.43;;;12.80;99.90;;;;;;4954426;28;20030;-77
2022/04/12 07:47:35;;;;;;;10.05;5.85;;;12.90;99.90;;;;;;4963540;28;20125;-78
2022/04/12 07:50:02;;;;;;;8.75;6.32;;;13.10;99.90;;;;;;4956789;28;20034;-79
2022/04/12 07:52:27;;;;;;;6.65;5.38;;;13.10;99.90;;;;;;4959418;28;20026;-78
2022/04/12 07:54:53;;;;;;;8.02;6.35;;;13.50;99.90;;;;;;4958636;28;20030;-77
2022/04/12 07:57:19;;;;;;;11.27;5.80;;;13.90;99.90;;;;;;4947191;28;20019;-76
2022/04/12 07:59:44;;;;;;;8.30;6.07;;;14.20;99.90;;;;;;4955464;29;20022;-77
2022/04/12 08:02:10;;;;;;;17.33;6.53;;;14.00;99.90;;;;;;4952544;28;20039;-76
2022/04/12 08:04:35;;;;;;;6.43;5.32;;;14.40;99.40;;;;;;4959327;28;20031;-76
2022/04/12 08:07:01;;;;;;;7.22;5.75;;;14.50;98.90;;;;;;4948427;29;20027;-77
2022/04/12 08:09:26;;;;;;;9.93;5.88;;;14.60;98.90;;;;;;4955992;29;20031;-78
2022/04/12 08:11:51;;;;;;;8.45;5.30;;;14.60;98.40;;;;;;4946683;28;20027;-77
2022/04/12 08:14:17;;;;;;;7.45;4.97;;;14.70;98.50;;;;;;4956309;28;20064;-77
2022/04/12 08:16:43;;;;;;;7.03;5.10;;;14.70;97.70;;;;;;4953714;28;20508;-78
2022/04/12 08:19:08;;;;;;;8.63;4.75;;;14.70;97.60;;;;;;4955817;29;20054;-77
2022/04/12 08:21:39;;;;;;;10.27;5.20;;;14.60;97.60;;;;;;4945144;29;20420;-79
2022/04/12 08:24:06;;;;;;;8.48;5.95;;;14.90;97.20;;;;;;4950625;28;20023;-78
2022/04/12 08:26:32;;;;;;;6.20;4.25;;;15.00;97.00;;;;;;4942613;29;20030;-77
2022/04/12 08:28:57;;;;;;;5.28;4.78;;;15.10;96.70;;;;;;4955726;28;20023;-78
2022/04/12 08:31:23;;;;;;;8.75;5.30;;;15.10;96.40;;;;;;4943965;29;20026;-77
2022/04/12 08:33:49;;;;;;;7.13;5.82;;;15.20;96.30;;;;;;4933225;29;20035;-79
2022/04/12 08:36:16;;;;;;;8.27;6.00;;;15.20;95.80;;;;;;4936506;29;20027;-77
2022/04/12 08:38:43;;;;;;;10.00;5.47;;;15.20;95.70;;;;;;4954459;29;20043;-76
2022/04/12 08:41:09;;;;;;;5.70;5.07;;;15.20;95.50;;;;;;4939461;29;20050;-77
2022/04/12 08:43:39;;;;;;;6.03;4.68;;;15.40;95.40;;;;;;4957640;28;20025;-77
2022/04/12 08:46:06;;;;;;;5.40;4.85;;;15.50;95.30;;;;;;4947840;28;20035;-78
2022/04/12 08:48:33;;;;;;;7.80;4.85;;;15.60;94.90;;;;;;4936325;29;20031;-77
2022/04/12 08:50:59;;;;;;;8.73;4.50;;;15.80;95.10;;;;;;4951911;29;20520;-77
2022/04/12 08:53:26;;;;;;;5.25;4.50;;;16.00;94.40;;;;;;4949118;29;20035;-77
2022/04/12 08:55:51;;;;;;;8.48;5.07;;;16.10;94.20;;;;;;4942187;29;20027;-77
2022/04/12 08:58:17;;;;;;;5.85;4.53;;;16.40;93.90;;;;;;4938274;29;20028;-77
2022/04/12 09:00:43;;;;;;;6.60;4.93;;;16.30;93.70;;;;;;4964049;28;20166;-78
2022/04/12 09:03:16;;;;;;;7.60;5.00;;;16.60;93.10;;;;;;4951354;28;20051;-77
2022/04/12 09:05:41;;;;;;;7.95;4.90;;;16.80;93.20;;;;;;4955499;28;20065;-77
2022/04/12 09:08:30;;;;;;;5.30;4.47;;;17.00;92.80;;;;;;4948969;29;20086;-77
2022/04/12 09:11:01;;;;;;;6.47;4.97;;;17.10;92.40;;;;;;4950810;28;20035;-79
2022/04/12 09:13:27;;;;;;;6.93;4.25;;;17.10;92.40;;;;;;4945676;29;20027;-77
2022/04/12 09:15:53;;;;;;;6.20;4.32;;;17.20;92.30;;;;;;4952861;29;20390;-78
2022/04/12 09:18:44;;;;;;;12.30;4.55;;;17.20;92.10;;;;;;4959084;28;20118;-78
2022/04/12 09:21:19;;;;;;;8.85;4.35;;;17.10;91.80;;;;;;4953797;29;20446;-77
2022/04/12 09:23:45;;;;;;;6.72;4.82;;;17.00;91.30;;;;;;4959056;28;20393;-78
2022/04/12 09:26:29;;;;;;;7.13;5.28;;;17.10;91.30;;;;;;4942115;29;20050;-78
2022/04/12 09:28:58;;;;;;;6.35;4.53;;;17.20;91.30;;;;;;4955332;29;20031;-82
2022/04/12 09:31:24;;;;;;;7.00;4.00;;;17.60;90.50;;;;;;4954808;29;20050;-78
2022/04/12 09:33:52;;;;;;;4.88;4.00;;;17.70;90.20;;;;;;4950612;29;20093;-78
2022/04/12 09:36:18;;;;;;;10.20;4.53;;;17.80;89.50;;;;;;4956649;28;20019;-78
2022/04/12 09:38:46;;;;;;;7.43;4.50;;;17.80;90.00;;;;;;4957859;29;20019;-77
2022/04/12 09:41:20;;;;;;;11.93;3.58;;;18.00;87.70;;;;;;4956950;29;20206;-79
2022/04/12 09:44:08;;;;;;;10.00;4.00;;;18.10;86.70;;;;;;4950680;29;20482;-78
2022/04/12 09:46:42;;;;;;;6.50;4.22;;;18.30;86.50;;;;;;4939297;29;20027;-78
2022/04/12 09:49:07;;;;;;;5.63;4.65;;;18.40;85.40;;;;;;4940884;29;20063;-78
2022/04/12 09:51:36;;;;;;;5.78;3.83;;;18.40;85.20;;;;;;4948185;29;20050;-78
2022/04/12 09:54:02;;;;;;;6.30;4.07;;;18.60;84.90;;;;;;4948507;28;20032;-78
2022/04/12 09:56:30;;;;;;;5.65;3.33;;;18.70;84.80;;;;;;4948358;29;20027;-79
2022/04/12 09:58:58;;;;;;;6.57;3.40;;;18.80;83.30;;;;;;4950739;28;20039;-78
2022/04/12 10:01:25;;;;;;;5.45;3.35;;;18.80;82.90;;;;;;4955793;28;20393;-78
2022/04/12 10:03:59;;;;;;;5.80;3.17;;;18.80;81.60;;;;;;4954390;28;20027;-76
2022/04/12 10:06:27;;;;;;;9.27;3.63;;;18.70;82.50;;;;;;4955875;28;20039;-77
2022/04/12 10:08:58;;;;;;;7.07;4.05;;;18.80;83.20;;;;;;4955390;28;20082;-78
2022/04/12 10:11:24;;;;;;;6.68;3.95;;;18.90;81.10;;;;;;4959841;28;20027;-77
2022/04/12 10:13:51;;;;;;;5.30;3.58;;;18.90;80.90;;;;;;4959497;28;20690;-79
2022/04/12 10:16:18;;;;;;;3.72;2.90;;;18.90;81.20;;;;;;4936962;29;20039;-79
2022/04/12 10:18:45;;;;;;;3.35;2.80;;;19.00;80.60;;;;;;4940029;29;20031;-78
2022/04/12 10:21:12;;;;;;;4.53;2.10;;;19.00;80.00;;;;;;4961891;29;20027;-78
2022/04/12 10:23:40;;;;;;;3.30;2.90;;;19.20;78.40;;;;;;4955642;28;20377;-77
2022/04/12 10:26:07;;;;;;;4.15;2.80;;;19.40;77.50;;;;;;4962916;28;20118;-78
2022/04/12 10:28:33;;;;;;;4.32;2.60;;;19.70;77.50;;;;;;4962771;28;20063;-79
2022/04/12 10:31:26;;;;;;;11.23;3.53;;;19.90;78.40;;;;;;4960002;28;20023;-78
2022/04/12 10:34:01;;;;;;;3.38;2.42;;;19.90;77.20;;;;;;4955791;29;20054;-78
2022/04/12 10:36:55;;;;;;;3.95;2.42;;;20.00;76.80;;;;;;4957631;28;20024;-77
2022/04/12 10:39:36;;;;;;;8.50;2.63;;;20.10;76.20;;;;;;4967075;29;20030;-79
2022/04/12 10:42:06;;;;;;;5.93;2.42;;;20.30;74.60;;;;;;4962093;29;20031;-79
2022/04/12 10:44:41;;;;;;;5.25;2.15;;;20.10;73.70;;;;;;4978156;28;20485;-78
2022/04/12 10:47:24;;;;;;;2.00;1.65;;;20.10;72.30;;;;;;4959611;29;20103;-78
2022/04/12 10:50:19;;;;;;;6.47;1.88;;;20.20;70.90;;;;;;4940162;29;20032;-79
2022/04/12 10:52:50;;;;;;;2.92;1.55;;;19.90;71.40;;;;;;4933515;29;20109;-79
2022/04/12 10:55:25;;;;;;;6.07;1.70;;;19.90;69.60;;;;;;4956841;28;20144;-78
2022/04/12 10:57:52;;;;;;;1.83;1.27;;;20.00;69.30;;;;;;4941907;29;20031;-75
2022/04/12 11:00:21;;;;;;;3.30;1.20;;;20.20;68.40;;;;;;4957818;29;20031;-76
2022/04/12 11:02:55;;;;;;;3.33;1.85;;;20.80;68.60;;;;;;4960074;29;20030;-76
2022/04/12 11:05:33;;;;;;;2.92;1.80;;;21.10;67.50;;;;;;4963953;28;20046;-76
2022/04/12 11:07:59;;;;;;;3.20;1.65;;;21.20;67.10;;;;;;4978140;28;20042;-77
2022/04/12 11:10:25;;;;;;;2.95;0.90;;;21.20;66.80;;;;;;4989198;28;20015;-78
2022/04/12 11:13:06;;;;;;;2.83;1.52;;;21.30;64.50;;;;;;4988466;28;20116;-81
2022/04/12 11:15:33;;;;;;;2.40;1.73;;;21.40;65.10;;;;;;4967178;28;20063;-77
2022/04/12 11:18:06;;;;;;;5.50;1.85;;;21.40;66.50;;;;;;4964660;28;20066;-76
2022/04/12 11:20:33;;;;;;;2.42;1.05;;;21.50;63.10;;;;;;4945481;29;20027;-76
2022/04/12 11:23:02;;;;;;;2.08;1.08;;;21.60;60.70;;;;;;4971927;28;20492;-76
2022/04/12 11:25:27;;;;;;;3.45;1.10;;;21.40;61.10;;;;;;4962007;28;20106;-76
2022/04/12 11:28:01;;;;;;;3.05;1.60;;;21.20;61.90;;;;;;4955778;28;20058;-75
2022/04/12 11:30:27;;;;;;;2.65;1.17;;;21.40;61.20;;;;;;4958651;29;20492;-77
2022/04/12 11:32:54;;;;;;;1.45;1.15;;;21.40;61.90;;;;;;4953999;29;20570;-76
2022/04/12 11:35:21;;;;;;;1.48;1.13;;;21.60;60.80;;;;;;4946204;28;20101;-76
2022/04/12 11:37:48;;;;;;;2.13;1.30;;;21.70;61.00;;;;;;4957684;28;20023;-77
2022/04/12 11:40:13;;;;;;;2.03;1.40;;;21.80;62.00;;;;;;4964405;28;20042;-76
2022/04/12 11:42:39;;;;;;;4.22;1.17;;;21.90;61.60;;;;;;4963295;28;20026;-76
2022/04/12 11:45:05;;;;;;;2.15;1.20;;;21.90;61.90;;;;;;4962725;28;20023;-76
2022/04/12 11:47:39;;;;;;;3.42;1.30;;;22.00;61.60;;;;;;4962341;28;20392;-76
2022/04/12 11:50:19;;;;;;;1.80;1.23;;;22.50;60.80;;;;;;4967226;28;20061;-78
2022/04/12 11:52:45;;;;;;;1.98;1.20;;;22.50;60.50;;;;;;4960530;28;20118;-76
2022/04/12 11:55:11;;;;;;;3.15;1.85;;;22.30;60.80;;;;;;4956001;28;20035;-74
2022/04/12 11:57:37;;;;;;;1.38;1.20;;;22.60;60.40;;;;;;4939360;29;20035;-74
2022/04/12 12:00:03;;;;;;;3.03;1.30;;;22.50;60.60;;;;;;4959865;28;20027;-78
2022/04/12 12:02:31;;;;;;;1.60;1.02;;;22.50;61.00;;;;;;4962235;28;20015;-77
2022/04/12 12:05:06;;;;;;;3.25;1.27;;;22.40;61.10;;;;;;4963066;28;20023;-76
2022/04/12 12:07:36;;;;;;;1.63;1.38;;;22.70;61.20;;;;;;4954560;28;20047;-77
2022/04/12 12:10:07;;;;;;;2.05;1.17;;;22.80;61.10;;;;;;4958924;28;20492;-76
2022/04/12 12:12:38;;;;;;;4.68;1.77;;;22.90;61.20;;;;;;4963254;28;20027;-76
2022/04/12 12:15:23;;;;;;;2.83;1.13;;;23.10;60.10;;;;;;4958701;28;20022;-76
2022/04/12 12:17:53;;;;;;;4.43;1.20;;;23.00;61.00;;;;;;4952570;29;20019;-76
2022/04/12 12:20:21;;;;;;;1.73;0.95;;;23.00;60.90;;;;;;4953681;29;20077;-76
2022/04/12 12:22:50;;;;;;;3.17;1.30;;;23.20;60.50;;;;;;4951278;29;20034;-77
2022/04/12 12:25:19;;;;;;;1.67;1.02;;;23.30;60.30;;;;;;4953308;28;20110;-75
2022/04/12 12:27:53;;;;;;;2.03;1.63;;;23.50;60.00;;;;;;4948668;29;20482;-76
2022/04/12 12:30:25;;;;;;;1.88;1.13;;;23.80;59.80;;;;;;4935029;28;20024;-76
2022/04/12 12:32:52;;;;;;;2.15;0.90;;;23.80;59.40;;;;;;4957227;28;20560;-76
2022/04/12 12:35:18;;;;;;;7.20;1.75;;;23.80;59.40;;;;;;4954588;28;20242;-76
2022/04/12 12:37:45;;;;;;;3.92;1.00;;;23.90;59.40;;;;;;4954422;28;20031;-76
2022/04/12 12:40:23;;;;;;;3.05;1.23;;;23.90;59.20;;;;;;4938613;29;20023;-76
2022/04/12 12:42:50;;;;;;;2.08;0.98;;;23.60;59.80;;;;;;4959149;28;20031;-76
2022/04/12 12:45:19;;;;;;;2.22;0.70;;;23.70;59.00;;;;;;4952276;28;20042;-75
2022/04/12 12:47:49;;;;;;;1.88;1.20;;;24.00;58.90;;;;;;4956854;28;20027;-76
2022/04/12 12:50:17;;;;;;;3.45;1.10;;;23.80;58.80;;;;;;4952820;28;20433;-75
2022/04/12 12:52:46;;;;;;;3.42;1.15;;;24.10;58.10;;;;;;4942603;29;20054;-76